Hanjin Robertsbank — DSNW9 — position and weather

sailwx.info

Track history (hours):
 
Tides and Currents Weather Stations Pressure Air Temp Water Temp Dewpoint Dewpoint Depression Visibility Wind Speed Wind Dir Waves Ship Positions

Hanjin Robertsbank

Last reported at 2017-Nov-23 00:42 UTC. Time now 2017-Dec-11 23:05 UTC.
Position S 27°50' E 154°01'.
Warning: this ship's position is 18 days out of date.

Length 268 m; draft 15.1 m.

Type: Cargo ship. MMSI: 440386000.

Date/timePositionNaut miles runAvg speedWind from/ knotsBaromVisibWave heightAir tempDewpointWater temp
2017-Nov-23 00:42S 27°50' E 154°01'211.5
2017-Nov-23 00:30S 27°52' E 154°01'611.4
2017-Nov-23 00:00S 27°58' E 154°01'611.1
2017-Nov-22 23:29S 28°04' E 154°00'511.0
2017-Nov-22 23:00S 28°09' E 153°59'611.1
2017-Nov-22 22:30S 28°14' E 153°58'510.9
2017-Nov-22 22:00S 28°20' E 153°58'510.5
2017-Nov-22 21:29S 28°25' E 153°57'510.1
2017-Nov-22 21:00S 28°30' E 153°56'5 9.9
2017-Nov-22 20:30S 28°35' E 153°55'  
2017-Nov-19 23:02S 32°54' E 152°15'0 1.2
2017-Nov-19 22:59S 32°54' E 152°15'1 1.5
2017-Nov-19 22:29S 32°55' E 152°15'1 1.4
2017-Nov-19 21:59S 32°55' E 152°16'1 1.4
2017-Nov-19 21:29S 32°55' E 152°17'1 1.6
2017-Nov-19 21:00S 32°56' E 152°18'1 1.7
2017-Nov-19 20:30S 32°56' E 152°19'1 1.4
2017-Nov-19 20:00S 32°56' E 152°19'0 0.8
2017-Nov-19 19:30S 32°56' E 152°20'1 2.2
2017-Nov-19 19:00S 32°56' E 152°19'5 9.8
2017-Nov-19 18:30S 32°56' E 152°13'611.1
2017-Nov-19 18:00S 32°56' E 152°06'510.7
2017-Nov-19 17:30S 32°56' E 151°60'2 4.6
2017-Nov-19 17:00S 32°54' E 152°01'510.4
2017-Nov-19 16:30S 32°52' E 152°07'611.0
2017-Nov-19 16:00S 32°50' E 152°13'510.2
2017-Nov-19 15:30S 32°48' E 152°19'611.3
2017-Nov-19 15:00S 32°45' E 152°24'611.7
2017-Nov-19 14:30S 32°41' E 152°29'612.5
2017-Nov-19 14:00S 32°36' E 152°34'712.9
2017-Nov-19 13:28S 32°31' E 152°39'24013.5
2017-Nov-18 19:38S 28°40' E 153°55'313.7
2017-Nov-18 19:26S 28°37' E 153°55'713.5
2017-Nov-18 18:54S 28°30' E 153°56'513.2
2017-Nov-18 18:30S 28°25' E 153°57'713.1
2017-Nov-18 18:00S 28°18' E 153°58'712.7
2017-Nov-18 17:29S 28°12' E 153°59'612.4
2017-Nov-18 17:00S 28°06' E 154°00'612.4
2017-Nov-18 16:30S 27°59' E 154°01'612.5
2017-Nov-18 16:00S 27°53' E 154°01'612.4
2017-Nov-18 15:30S 27°47' E 154°01'  
Track history (hours):
 
Tides and Currents Weather Stations Pressure Air Temp Water Temp Dewpoint Dewpoint Depression Visibility Wind Speed Wind Dir Waves Ship Positions

Hanjin Robertsbank

Last reported at 2017-Nov-23 00:42 UTC. Time now 2017-Dec-11 23:05 UTC.
Position S 27°50' E 154°01'.
Warning: this ship's position is 18 days out of date.

Length 268 m; draft 15.1 m.

Type: Cargo ship. MMSI: 440386000.

Date/timePositionNaut miles runAvg speedWind from/ knotsBaromVisibWave heightAir tempDewpointWater temp
2017-Nov-23 00:42S 27°50' E 154°01'211.5
2017-Nov-23 00:30S 27°52' E 154°01'611.4
2017-Nov-23 00:00S 27°58' E 154°01'611.1
2017-Nov-22 23:29S 28°04' E 154°00'511.0
2017-Nov-22 23:00S 28°09' E 153°59'611.1
2017-Nov-22 22:30S 28°14' E 153°58'510.9
2017-Nov-22 22:00S 28°20' E 153°58'510.5
2017-Nov-22 21:29S 28°25' E 153°57'510.1
2017-Nov-22 21:00S 28°30' E 153°56'5 9.9
2017-Nov-22 20:30S 28°35' E 153°55'  
2017-Nov-19 23:02S 32°54' E 152°15'0 1.2
2017-Nov-19 22:59S 32°54' E 152°15'1 1.5
2017-Nov-19 22:29S 32°55' E 152°15'1 1.4
2017-Nov-19 21:59S 32°55' E 152°16'1 1.4
2017-Nov-19 21:29S 32°55' E 152°17'1 1.6
2017-Nov-19 21:00S 32°56' E 152°18'1 1.7
2017-Nov-19 20:30S 32°56' E 152°19'1 1.4
2017-Nov-19 20:00S 32°56' E 152°19'0 0.8
2017-Nov-19 19:30S 32°56' E 152°20'1 2.2
2017-Nov-19 19:00S 32°56' E 152°19'5 9.8
2017-Nov-19 18:30S 32°56' E 152°13'611.1
2017-Nov-19 18:00S 32°56' E 152°06'510.7
2017-Nov-19 17:30S 32°56' E 151°60'2 4.6
2017-Nov-19 17:00S 32°54' E 152°01'510.4
2017-Nov-19 16:30S 32°52' E 152°07'611.0
2017-Nov-19 16:00S 32°50' E 152°13'510.2
2017-Nov-19 15:30S 32°48' E 152°19'611.3
2017-Nov-19 15:00S 32°45' E 152°24'611.7
2017-Nov-19 14:30S 32°41' E 152°29'612.5
2017-Nov-19 14:00S 32°36' E 152°34'712.9
2017-Nov-19 13:28S 32°31' E 152°39'24013.5
2017-Nov-18 19:38S 28°40' E 153°55'313.7
2017-Nov-18 19:26S 28°37' E 153°55'713.5
2017-Nov-18 18:54S 28°30' E 153°56'513.2
2017-Nov-18 18:30S 28°25' E 153°57'713.1
2017-Nov-18 18:00S 28°18' E 153°58'712.7
2017-Nov-18 17:29S 28°12' E 153°59'612.4
2017-Nov-18 17:00S 28°06' E 154°00'612.4
2017-Nov-18 16:30S 27°59' E 154°01'612.5
2017-Nov-18 16:00S 27°53' E 154°01'612.4
2017-Nov-18 15:30S 27°47' E 154°01'  

Dump ship's entire track history